Карточка аэропорта UHMM

Внимание!
Информация на этой странице в стадии наполнения.
Если вы не увидели какой-то информации, или заметили неточность - пожалуйста сообщите нам!
Спасибо!
Команда RU-STAFF
Название аэропортаСокол
Название аэропорта (англ.)Sokol
Превышение575 ft. (175.3 m.)
Координаты59°54.648', 150°43.2'
Высота перехода10000 ft
Эшелон переходаQNH>=1013hPa: FL110; 1013hPa>QNH>=977hPa: FL120; QNH<977hPa: FL130
Коды ответчика6540-6577
Зона ОрВДМагадан РПИ (UHMM)
Данные METARUHMM 131800Z 25002MPS 0300 0250W R10/0250N FG VV002 10/10 Q1011 RMK QBB080 QFE743 R28/29002MPS 270V340
Проноз погоды (TAF)UHMM 131639Z 1318/1424 21003G09MPS 0400 FG VV003 FM132100 24003G09MPS 9999 BKN020CB
NOTAMshow/hide NOTAM
AWOS   TABLE

Информация о ВПП


Диспетчерские позиции

Позывной Наименование органа УВД Частота
UHMM_APPМагадан-Подход119.3
UHMM_TWRМагадан-Вышка120.8



Спутниковое изображение